Terminal Aerodrome Forecast
Issued by NWS

Home | Current Version | Previous Version | Graphics & Text | Print | Product List | Glossary On
Versions: 1 2 3 4 5 6 7 8 9 10 11 12 13 14 15 16
994
FTUS43 KICT 240125 AAA
TAFRSL
TAF AMD
KRSL 240125Z 2401/2424 36022G30KT P6SM VCSH OVC009
      TEMPO 2401/2403 5SM RA
     FM240300 33022G26KT P6SM OVC008
     FM240900 32022G26KT P6SM OVC013=

USA.gov is the U.S. government's official web portal to all federal, state and local government web resources and services.